createdAt,value
2017-09-06T00:01:33.986Z,1.10
2017-09-06T00:04:01.413Z,1.73
2017-09-06T00:06:28.822Z,1.50
2017-09-06T00:08:56.244Z,1.40
2017-09-06T00:11:23.652Z,1.27
2017-09-06T00:13:51.077Z,1.37
2017-09-06T00:16:18.486Z,1.17
2017-09-06T00:18:45.912Z,1.00
2017-09-06T00:21:13.389Z,1.33
2017-09-06T00:23:40.798Z,1.10
2017-09-06T00:26:08.217Z,1.20
2017-09-06T00:28:35.637Z,1.17
2017-09-06T00:31:03.048Z,1.20
2017-09-06T00:33:30.472Z,1.40
2017-09-06T00:35:57.938Z,1.30
2017-09-06T00:38:25.354Z,1.43
2017-09-06T00:40:52.772Z,1.10
2017-09-06T00:43:20.969Z,1.13
2017-09-06T00:45:48.375Z,1.47
2017-09-06T00:48:15.810Z,1.50
2017-09-06T00:50:43.218Z,1.60
2017-09-06T00:53:10.651Z,1.17
2017-09-06T00:55:38.054Z,1.20
2017-09-06T00:58:06.235Z,1.37
2017-09-06T01:00:33.649Z,1.27
2017-09-06T01:03:01.063Z,1.10
2017-09-06T01:05:28.469Z,1.10
2017-09-06T01:07:55.887Z,1.67
2017-09-06T01:10:23.302Z,1.33
2017-09-06T01:12:50.717Z,1.10
2017-09-06T01:15:18.140Z,1.43
2017-09-06T01:17:45.550Z,1.00
2017-09-06T01:20:12.973Z,1.27
2017-09-06T01:22:40.382Z,1.50
2017-09-06T01:25:07.801Z,1.17
2017-09-06T01:27:35.222Z,1.23
2017-09-06T01:30:02.640Z,1.60
2017-09-06T01:32:30.047Z,1.37
2017-09-06T01:34:57.462Z,1.37
2017-09-06T01:37:24.878Z,1.30
2017-09-06T01:39:52.286Z,1.40
2017-09-06T01:42:19.701Z,1.40
2017-09-06T01:44:47.123Z,1.07
2017-09-06T01:47:14.540Z,1.57
2017-09-06T01:49:42.755Z,1.20
2017-09-06T01:52:10.174Z,1.10
2017-09-06T01:54:37.585Z,1.07
2017-09-06T01:57:05.009Z,1.20
2017-09-06T01:59:32.424Z,1.10
2017-09-06T02:01:59.839Z,1.33
2017-09-06T02:04:27.260Z,1.17
2017-09-06T02:06:54.665Z,1.03
2017-09-06T02:09:22.092Z,1.40
2017-09-06T02:11:49.502Z,1.17
2017-09-06T02:14:16.922Z,1.07
2017-09-06T02:16:44.342Z,1.30
2017-09-06T02:19:11.750Z,1.30
2017-09-06T02:21:39.173Z,1.00
2017-09-06T02:24:06.590Z,1.30
2017-09-06T02:26:34.010Z,1.10
2017-09-06T02:29:01.422Z,1.30
2017-09-06T02:31:28.844Z,1.27
2017-09-06T02:33:56.255Z,1.00
2017-09-06T02:36:23.680Z,1.23
2017-09-06T02:38:51.112Z,1.07
2017-09-06T02:41:18.535Z,1.00
2017-09-06T02:43:45.951Z,1.37
2017-09-06T02:46:14.055Z,0.93
2017-09-06T02:48:41.479Z,1.47
2017-09-06T02:51:08.891Z,1.00
2017-09-06T02:53:36.310Z,1.00
2017-09-06T02:56:03.723Z,1.30
2017-09-06T02:58:31.135Z,1.10
2017-09-06T03:00:59.322Z,1.10
2017-09-06T03:03:26.743Z,1.00
2017-09-06T03:05:54.158Z,1.40
2017-09-06T03:08:21.575Z,1.40
2017-09-06T03:10:48.991Z,1.50
2017-09-06T03:13:16.406Z,1.33
2017-09-06T03:15:43.821Z,1.50
2017-09-06T03:18:11.244Z,1.50
2017-09-06T03:20:38.638Z,1.20
2017-09-06T03:23:06.062Z,1.30
2017-09-06T03:25:33.470Z,1.10
2017-09-06T03:28:00.890Z,1.20
2017-09-06T03:30:28.312Z,1.00
2017-09-06T03:32:55.733Z,1.30
2017-09-06T03:35:23.139Z,1.30
2017-09-06T03:37:50.553Z,1.27
2017-09-06T03:40:17.965Z,1.30
2017-09-06T03:42:45.387Z,1.40
2017-09-06T03:45:12.794Z,1.43
2017-09-06T03:47:40.201Z,1.40
2017-09-06T03:50:07.620Z,1.33
2017-09-06T03:52:35.027Z,1.37
2017-09-06T03:55:02.436Z,1.40
2017-09-06T03:57:29.870Z,1.33
2017-09-06T03:59:57.272Z,1.23
2017-09-06T04:02:24.685Z,1.43
2017-09-06T04:04:53.047Z,1.20
2017-09-06T04:07:20.458Z,1.20
2017-09-06T04:09:47.874Z,1.57
2017-09-06T04:12:15.773Z,1.40
2017-09-06T04:14:43.198Z,1.07
2017-09-06T04:17:10.606Z,1.87
2017-09-06T04:19:38.082Z,1.80
2017-09-06T04:22:05.504Z,1.30
2017-09-06T04:24:32.914Z,1.40
2017-09-06T04:27:00.335Z,1.60
2017-09-06T04:29:27.750Z,1.40
2017-09-06T04:31:55.163Z,1.53
2017-09-06T04:34:22.584Z,1.50
2017-09-06T04:36:49.993Z,1.40
2017-09-06T04:39:17.426Z,1.53
2017-09-06T04:41:44.834Z,1.70
2017-09-06T04:44:12.247Z,1.33
2017-09-06T04:46:39.659Z,1.20
2017-09-06T04:49:07.487Z,1.33
2017-09-06T04:51:34.908Z,1.10
2017-09-06T04:54:02.707Z,1.20
2017-09-06T04:56:30.379Z,1.40
2017-09-06T04:58:57.790Z,1.23
2017-09-06T05:01:25.207Z,1.47
2017-09-06T05:03:52.625Z,1.73
2017-09-06T05:06:20.044Z,1.50
2017-09-06T05:08:47.453Z,1.30
2017-09-06T05:11:14.876Z,1.20
2017-09-06T05:13:42.282Z,1.50
2017-09-06T05:16:09.694Z,1.50
2017-09-06T05:18:37.119Z,1.20
2017-09-06T05:21:04.541Z,1.50
2017-09-06T05:23:31.954Z,1.40
2017-09-06T05:25:59.378Z,1.47
2017-09-06T05:28:26.794Z,1.40
2017-09-06T05:30:54.215Z,1.30
2017-09-06T05:33:21.636Z,1.40
2017-09-06T05:35:49.049Z,1.33
2017-09-06T05:38:16.486Z,1.57
2017-09-06T05:40:43.914Z,1.20
2017-09-06T05:43:11.326Z,1.47
2017-09-06T05:45:38.747Z,1.53
2017-09-06T05:48:06.167Z,1.57
2017-09-06T05:50:33.618Z,1.47
2017-09-06T05:53:01.027Z,1.67
2017-09-06T05:55:28.453Z,1.53
2017-09-06T05:57:55.865Z,1.23
2017-09-06T06:00:23.279Z,1.40
2017-09-06T06:02:50.705Z,1.63
2017-09-06T06:05:18.126Z,1.40
2017-09-06T06:07:45.897Z,1.30
2017-09-06T06:10:13.310Z,1.90
2017-09-06T06:12:40.736Z,1.27
2017-09-06T06:15:08.145Z,1.53
2017-09-06T06:17:35.559Z,1.80
2017-09-06T06:20:02.981Z,1.20
2017-09-06T06:22:30.390Z,1.40
2017-09-06T06:24:57.823Z,1.30
2017-09-06T06:27:25.231Z,1.30
2017-09-06T06:29:52.642Z,1.70
2017-09-06T06:32:20.060Z,1.20
2017-09-06T06:34:47.471Z,1.40
2017-09-06T06:37:22.274Z,1.03
2017-09-06T06:39:50.199Z,1.00
2017-09-06T06:42:17.621Z,1.40
2017-09-06T06:44:45.030Z,1.10
2017-09-06T06:47:12.490Z,0.87
2017-09-06T06:49:39.905Z,1.00
2017-09-06T06:52:07.318Z,0.90
2017-09-06T06:54:34.734Z,0.87
2017-09-06T06:57:02.151Z,0.77
2017-09-06T06:59:29.562Z,1.10
2017-09-06T07:01:56.966Z,0.90
2017-09-06T07:04:24.382Z,0.73
2017-09-06T07:06:51.788Z,0.60
2017-09-06T07:09:19.210Z,0.70
2017-09-06T07:11:46.761Z,0.70
2017-09-06T07:14:14.165Z,1.07
2017-09-06T07:16:42.415Z,0.63
2017-09-06T07:19:09.839Z,0.70
2017-09-06T07:21:37.247Z,0.70
2017-09-06T07:24:04.675Z,0.83
2017-09-06T07:26:33.642Z,0.80
2017-09-06T07:29:01.061Z,0.70
2017-09-06T07:31:28.472Z,0.90
2017-09-06T07:33:55.894Z,0.90
2017-09-06T07:36:23.306Z,1.00
2017-09-06T07:38:50.727Z,0.83
2017-09-06T07:41:18.145Z,0.70
2017-09-06T07:43:45.571Z,0.80
2017-09-06T07:46:12.983Z,0.73
2017-09-06T07:48:40.414Z,0.90
2017-09-06T07:51:07.826Z,0.87
2017-09-06T07:53:35.242Z,0.80
2017-09-06T07:56:02.658Z,0.83
2017-09-06T07:58:30.067Z,0.77
2017-09-06T08:00:57.485Z,0.93
2017-09-06T08:03:25.687Z,1.07
2017-09-06T08:05:53.098Z,0.93
2017-09-06T08:08:20.506Z,0.90
2017-09-06T08:10:48.706Z,1.10
2017-09-06T08:13:16.114Z,0.80
2017-09-06T08:15:44.157Z,1.43
2017-09-06T08:18:11.574Z,1.10
2017-09-06T08:20:38.998Z,1.07
2017-09-06T08:23:06.404Z,1.20
2017-09-06T08:25:33.822Z,0.80
2017-09-06T08:28:01.479Z,1.00
2017-09-06T08:30:28.901Z,1.20
2017-09-06T08:32:56.314Z,0.97
2017-09-06T08:35:23.735Z,1.10
2017-09-06T08:37:51.145Z,1.10
2017-09-06T08:40:18.565Z,0.60
2017-09-06T08:42:45.981Z,0.90
2017-09-06T08:45:13.395Z,1.30
2017-09-06T08:47:40.799Z,0.90
2017-09-06T08:50:08.272Z,1.27
2017-09-06T08:52:35.682Z,1.30
2017-09-06T08:55:03.131Z,1.00
2017-09-06T08:57:31.210Z,0.60
2017-09-06T08:59:59.437Z,0.80
2017-09-06T09:02:26.847Z,1.20
2017-09-06T09:04:54.811Z,0.77
2017-09-06T09:07:22.226Z,0.87
2017-09-06T09:09:50.274Z,0.80
2017-09-06T09:12:17.698Z,0.80
2017-09-06T09:14:45.117Z,0.80
2017-09-06T09:17:12.530Z,0.93
2017-09-06T09:19:39.944Z,1.00
2017-09-06T09:22:07.363Z,0.80
2017-09-06T09:24:34.773Z,0.83
2017-09-06T09:27:03.719Z,1.00
2017-09-06T09:29:31.127Z,0.97
2017-09-06T09:31:58.558Z,0.80
2017-09-06T09:34:25.969Z,0.70
2017-09-06T09:36:54.182Z,1.27
2017-09-06T09:39:21.600Z,1.20
2017-09-06T09:41:49.014Z,0.90
2017-09-06T09:44:16.436Z,0.90
2017-09-06T09:46:43.847Z,0.97
2017-09-06T09:49:11.262Z,1.10
2017-09-06T09:51:38.682Z,0.90
2017-09-06T09:54:06.101Z,0.80
2017-09-06T09:56:33.511Z,0.60
2017-09-06T09:59:00.934Z,1.00
2017-09-06T10:01:28.351Z,1.10
2017-09-06T10:03:55.766Z,0.93
2017-09-06T10:06:23.182Z,1.07
2017-09-06T10:08:51.734Z,1.40
2017-09-06T10:11:19.139Z,1.70
2017-09-06T10:13:56.206Z,1.40
2017-09-06T10:16:23.613Z,1.60
2017-09-06T10:18:51.023Z,1.30
2017-09-06T10:21:18.438Z,1.50
2017-09-06T10:23:45.859Z,1.67
2017-09-06T10:26:13.267Z,1.73
2017-09-06T10:28:40.699Z,1.40
2017-09-06T10:31:08.105Z,2.33
2017-09-06T10:33:35.523Z,2.30
2017-09-06T10:36:02.941Z,2.07
2017-09-06T10:38:30.359Z,1.97
2017-09-06T10:40:57.779Z,1.80
2017-09-06T10:43:25.196Z,2.30
2017-09-06T10:45:52.603Z,1.90
2017-09-06T10:48:20.018Z,2.50
2017-09-06T10:50:47.441Z,2.20
2017-09-06T10:53:14.851Z,2.50
2017-09-06T10:55:42.262Z,2.27
2017-09-06T10:58:10.494Z,1.47
2017-09-06T11:00:37.907Z,1.67
2017-09-06T11:03:05.323Z,1.60
2017-09-06T11:05:32.734Z,1.70
2017-09-06T11:08:00.150Z,2.63
2017-09-06T11:10:27.569Z,2.00
2017-09-06T11:12:54.982Z,1.40
2017-09-06T11:15:23.322Z,1.20
2017-09-06T11:17:50.743Z,1.80
2017-09-06T11:20:18.166Z,1.53
2017-09-06T11:22:45.579Z,1.30
2017-09-06T11:25:12.998Z,1.37
2017-09-06T11:27:40.407Z,1.50
2017-09-06T11:30:08.722Z,1.50
2017-09-06T11:32:36.133Z,1.73
2017-09-06T11:35:03.562Z,1.50
2017-09-06T11:37:30.970Z,1.40
2017-09-06T11:39:58.382Z,1.37
2017-09-06T11:42:25.790Z,1.63
2017-09-06T11:44:54.131Z,1.93
2017-09-06T11:47:22.223Z,1.30
2017-09-06T11:49:49.620Z,1.57
2017-09-06T11:52:17.039Z,1.57
2017-09-06T11:54:44.457Z,1.50
2017-09-06T11:57:11.866Z,1.80
2017-09-06T11:59:39.282Z,1.53
2017-09-06T12:02:06.690Z,1.70
2017-09-06T12:04:34.118Z,1.57
2017-09-06T12:07:01.527Z,1.67
2017-09-06T12:09:28.945Z,1.30
2017-09-06T12:11:56.366Z,1.63
2017-09-06T12:14:23.773Z,1.73
2017-09-06T12:16:51.193Z,1.73
2017-09-06T12:19:18.604Z,1.60
2017-09-06T12:21:46.019Z,1.80
2017-09-06T12:24:13.434Z,1.67
2017-09-06T12:26:40.856Z,1.47
2017-09-06T12:29:08.261Z,1.70
2017-09-06T12:31:35.678Z,1.23
2017-09-06T12:34:03.098Z,1.40
2017-09-06T12:36:30.521Z,1.70
2017-09-06T12:38:57.929Z,1.87
2017-09-06T12:41:25.338Z,1.80
2017-09-06T12:43:53.332Z,1.97
2017-09-06T12:46:20.755Z,2.00
2017-09-06T12:48:48.166Z,2.27
2017-09-06T12:51:15.604Z,1.07
2017-09-06T12:53:43.001Z,1.97
2017-09-06T12:56:10.427Z,1.70
2017-09-06T12:58:37.838Z,1.60
2017-09-06T13:01:06.640Z,1.83
2017-09-06T13:03:34.860Z,2.00
2017-09-06T13:06:02.282Z,1.90
2017-09-06T13:08:30.533Z,1.80
2017-09-06T13:10:57.951Z,1.63
2017-09-06T13:13:25.361Z,1.90
2017-09-06T13:15:52.774Z,1.80
2017-09-06T13:18:21.347Z,1.83
2017-09-06T13:20:49.454Z,1.80
2017-09-06T13:23:16.867Z,1.80
2017-09-06T13:25:44.299Z,1.70
2017-09-06T13:28:11.718Z,1.50
2017-09-06T13:30:39.121Z,1.50
2017-09-06T13:33:06.531Z,1.20
2017-09-06T13:35:33.939Z,1.63
2017-09-06T13:38:01.363Z,1.43
2017-09-06T13:40:28.771Z,1.57
2017-09-06T13:42:56.191Z,1.97
2017-09-06T13:45:23.595Z,1.90
2017-09-06T13:47:51.016Z,2.03
2017-09-06T13:50:18.419Z,1.90
2017-09-06T13:52:45.857Z,1.93
2017-09-06T13:55:13.260Z,1.60
2017-09-06T13:57:40.675Z,1.40
2017-09-06T14:00:08.089Z,1.87
2017-09-06T14:02:35.510Z,1.47
2017-09-06T14:05:02.923Z,1.97
2017-09-06T14:07:31.034Z,2.10
2017-09-06T14:09:58.454Z,1.40
2017-09-06T14:12:25.882Z,1.80
2017-09-06T14:14:53.299Z,2.10
2017-09-06T14:17:20.712Z,1.50
2017-09-06T14:19:48.985Z,2.13
2017-09-06T14:22:16.418Z,1.87
2017-09-06T14:24:43.836Z,1.63
2017-09-06T14:27:11.255Z,2.33
2017-09-06T14:29:38.670Z,2.03
2017-09-06T14:32:06.087Z,1.37
2017-09-06T14:34:33.498Z,1.90
2017-09-06T14:37:00.914Z,1.77
2017-09-06T14:39:28.326Z,2.53
2017-09-06T14:41:55.740Z,1.60
2017-09-06T14:44:23.163Z,2.10
2017-09-06T14:46:51.338Z,2.43
2017-09-06T14:49:18.749Z,1.70
2017-09-06T14:51:46.159Z,1.90
2017-09-06T14:54:13.577Z,1.50
2017-09-06T14:56:40.994Z,1.67
2017-09-06T14:59:08.768Z,1.63
2017-09-06T15:01:36.175Z,2.00
2017-09-06T15:04:03.595Z,2.20
2017-09-06T15:06:31.006Z,1.47
2017-09-06T15:08:59.195Z,2.03
2017-09-06T15:11:26.612Z,1.90
2017-09-06T15:13:54.035Z,1.70
2017-09-06T15:16:21.446Z,2.03
2017-09-06T15:18:48.874Z,1.87
2017-09-06T15:21:16.286Z,1.50
2017-09-06T15:23:43.705Z,1.60
2017-09-06T15:26:11.129Z,2.20
2017-09-06T15:28:38.553Z,1.90
2017-09-06T15:31:05.966Z,1.57
2017-09-06T15:33:33.396Z,1.57
2017-09-06T15:36:00.793Z,1.30
2017-09-06T15:38:28.214Z,2.30
2017-09-06T15:40:56.015Z,1.53
2017-09-06T15:43:23.431Z,1.40
2017-09-06T15:45:50.856Z,1.83
2017-09-06T15:48:18.265Z,1.70
2017-09-06T15:50:45.687Z,1.60
2017-09-06T15:53:13.098Z,1.70
2017-09-06T15:55:40.926Z,1.40
2017-09-06T15:58:08.324Z,1.80
2017-09-06T16:00:36.870Z,1.83
2017-09-06T16:03:04.538Z,1.97
2017-09-06T16:05:31.970Z,1.73
2017-09-06T16:07:59.374Z,2.20
2017-09-06T16:10:27.306Z,1.60
2017-09-06T16:12:54.726Z,1.53
2017-09-06T16:15:22.127Z,2.10
2017-09-06T16:17:50.443Z,2.10
2017-09-06T16:20:17.868Z,2.20
2017-09-06T16:22:45.270Z,1.50
2017-09-06T16:25:13.205Z,2.10
2017-09-06T16:27:40.627Z,1.73
2017-09-06T16:30:08.040Z,1.50
2017-09-06T16:32:35.459Z,1.80
2017-09-06T16:35:02.884Z,1.70
2017-09-06T16:37:30.298Z,2.37
2017-09-06T16:39:57.718Z,1.90
2017-09-06T16:42:25.130Z,1.57
2017-09-06T16:44:52.542Z,1.77
2017-09-06T16:47:20.910Z,2.00
2017-09-06T16:49:48.335Z,1.70
2017-09-06T16:52:15.749Z,1.70
2017-09-06T16:54:43.164Z,1.73
2017-09-06T16:57:10.578Z,1.90
2017-09-06T16:59:37.996Z,1.70
2017-09-06T17:02:05.418Z,1.53
2017-09-06T17:04:32.832Z,2.50
2017-09-06T17:07:00.911Z,1.90
2017-09-06T17:09:40.202Z,1.77
2017-09-06T17:12:08.137Z,1.77
2017-09-06T17:14:36.580Z,1.30
2017-09-06T17:17:03.997Z,1.87
2017-09-06T17:19:31.409Z,1.97
2017-09-06T17:21:58.818Z,2.03
2017-09-06T17:24:26.233Z,1.87
2017-09-06T17:26:53.647Z,1.77
2017-09-06T17:29:21.064Z,1.83
2017-09-06T17:31:48.466Z,2.43
2017-09-06T17:34:15.889Z,1.87
2017-09-06T17:36:43.290Z,1.87
2017-09-06T17:39:10.714Z,1.37
2017-09-06T17:41:38.139Z,1.90
2017-09-06T17:44:05.545Z,1.83
2017-09-06T17:46:32.965Z,1.80
2017-09-06T17:49:00.374Z,1.90
2017-09-06T17:51:27.790Z,2.23
2017-09-06T17:53:56.322Z,2.00
2017-09-06T17:56:23.738Z,2.20
2017-09-06T17:58:51.154Z,1.83
2017-09-06T18:01:18.573Z,2.03
2017-09-06T18:03:47.570Z,1.80
2017-09-06T18:06:14.982Z,2.37
2017-09-06T18:08:42.394Z,1.97
2017-09-06T18:11:09.826Z,2.43
2017-09-06T18:13:37.231Z,1.50
2017-09-06T18:16:04.652Z,1.60
2017-09-06T18:18:32.061Z,2.00
2017-09-06T18:20:59.479Z,2.20
2017-09-06T18:23:27.673Z,2.13
2017-09-06T18:25:55.087Z,1.90
2017-09-06T18:28:22.507Z,1.87
2017-09-06T18:30:50.257Z,2.30
2017-09-06T18:33:17.658Z,1.50
2017-09-06T18:35:45.082Z,1.50
2017-09-06T18:38:12.488Z,2.20
2017-09-06T18:40:39.907Z,1.80
2017-09-06T18:43:07.351Z,2.20
2017-09-06T18:45:34.791Z,2.13
2017-09-06T18:48:02.202Z,3.73
2017-09-06T18:50:29.624Z,1.97
2017-09-06T18:52:57.026Z,1.93
2017-09-06T18:55:24.953Z,2.70
2017-09-06T18:57:52.369Z,1.83
2017-09-06T19:00:19.790Z,2.00
2017-09-06T19:02:47.237Z,2.57
2017-09-06T19:05:14.669Z,2.07
2017-09-06T19:07:42.101Z,2.20
2017-09-06T19:10:09.516Z,2.33
2017-09-06T19:12:36.930Z,2.20
2017-09-06T19:15:04.353Z,2.00
2017-09-06T19:17:31.771Z,2.30
2017-09-06T19:19:59.186Z,2.60
2017-09-06T19:22:26.686Z,2.13
2017-09-06T19:24:54.102Z,2.37
2017-09-06T19:27:22.517Z,3.60
2017-09-06T19:29:50.239Z,2.00
2017-09-06T19:32:17.654Z,2.33
2017-09-06T19:34:45.077Z,2.60
2017-09-06T19:37:12.491Z,2.43
2017-09-06T19:39:39.906Z,2.03
2017-09-06T19:42:07.319Z,2.20
2017-09-06T19:44:34.758Z,2.30
2017-09-06T19:47:02.163Z,2.17
2017-09-06T19:49:29.586Z,2.30
2017-09-06T19:51:56.998Z,2.50
2017-09-06T19:54:24.416Z,2.10
2017-09-06T19:56:51.821Z,2.40
2017-09-06T19:59:19.246Z,2.57
2017-09-06T20:01:46.658Z,2.37
2017-09-06T20:04:14.072Z,2.67
2017-09-06T20:06:41.505Z,4.23
2017-09-06T20:09:09.533Z,2.30
2017-09-06T20:11:36.956Z,2.90
2017-09-06T20:14:05.300Z,2.50
2017-09-06T20:16:32.718Z,2.40
2017-09-06T20:19:00.131Z,2.40
2017-09-06T20:21:27.592Z,2.40
2017-09-06T20:23:55.374Z,2.43
2017-09-06T20:26:22.793Z,2.77
2017-09-06T20:28:51.469Z,2.80
2017-09-06T20:31:18.890Z,3.10
2017-09-06T20:33:46.310Z,3.10
2017-09-06T20:36:13.735Z,2.63
2017-09-06T20:38:41.214Z,3.17
2017-09-06T20:41:08.645Z,3.10
2017-09-06T20:43:36.059Z,2.90
2017-09-06T20:46:03.474Z,2.57
2017-09-06T20:48:30.893Z,2.70
2017-09-06T20:50:58.314Z,2.67
2017-09-06T20:53:25.727Z,2.20
2017-09-06T20:55:53.948Z,3.53
2017-09-06T20:58:22.226Z,2.87
2017-09-06T21:00:49.647Z,3.00
2017-09-06T21:03:17.060Z,2.83
2017-09-06T21:05:44.480Z,2.80
2017-09-06T21:08:11.878Z,3.10
2017-09-06T21:10:39.291Z,2.50
2017-09-06T21:13:07.069Z,3.50
2017-09-06T21:15:34.486Z,2.90
2017-09-06T21:18:01.904Z,4.93
2017-09-06T21:20:29.712Z,2.57
2017-09-06T21:22:57.365Z,4.30
2017-09-06T21:25:24.758Z,4.33
2017-09-06T21:27:52.170Z,3.47
2017-09-06T21:30:19.831Z,2.60
2017-09-06T21:32:47.783Z,2.80
2017-09-06T21:35:15.202Z,3.13
2017-09-06T21:37:42.694Z,2.90
2017-09-06T21:40:10.110Z,3.33
2017-09-06T21:42:38.243Z,3.00
2017-09-06T21:45:05.687Z,2.80
2017-09-06T21:47:33.078Z,3.27
2017-09-06T21:50:00.494Z,4.27
2017-09-06T21:52:27.924Z,3.00
2017-09-06T21:54:55.325Z,3.10
2017-09-06T21:57:22.760Z,3.67
2017-09-06T21:59:50.441Z,3.10
2017-09-06T22:02:17.859Z,3.10
2017-09-06T22:04:46.149Z,3.33
2017-09-06T22:07:14.754Z,2.90
2017-09-06T22:09:42.161Z,2.37
2017-09-06T22:12:09.577Z,3.20
2017-09-06T22:14:36.982Z,3.20
2017-09-06T22:17:04.407Z,2.50
2017-09-06T22:19:32.147Z,3.63
2017-09-06T22:22:00.170Z,3.33
2017-09-06T22:24:27.576Z,2.97
2017-09-06T22:26:55.782Z,2.73
2017-09-06T22:29:23.203Z,2.90
2017-09-06T22:31:50.615Z,3.20
2017-09-06T22:34:18.036Z,3.90
2017-09-06T22:36:45.455Z,3.70
2017-09-06T22:39:12.873Z,3.77
2017-09-06T22:41:40.295Z,2.90
2017-09-06T22:44:07.709Z,3.70
2017-09-06T22:46:35.123Z,3.40
2017-09-06T22:49:02.607Z,3.07
2017-09-06T22:51:30.009Z,3.37
2017-09-06T22:53:58.091Z,2.83
2017-09-06T22:56:25.503Z,2.90
2017-09-06T22:58:52.923Z,4.13
2017-09-06T23:01:20.370Z,3.37
2017-09-06T23:03:47.756Z,3.53
2017-09-06T23:06:15.169Z,2.80
2017-09-06T23:08:42.593Z,2.70
2017-09-06T23:11:10.031Z,3.40
2017-09-06T23:13:37.442Z,3.17
2017-09-06T23:16:05.228Z,3.37
2017-09-06T23:18:32.630Z,3.10
2017-09-06T23:21:00.066Z,3.73
2017-09-06T23:23:27.470Z,3.07
2017-09-06T23:25:54.886Z,3.40
2017-09-06T23:28:22.298Z,3.60
2017-09-06T23:30:49.723Z,3.13
2017-09-06T23:33:17.134Z,3.70
2017-09-06T23:35:44.554Z,4.30
2017-09-06T23:38:11.965Z,3.60
2017-09-06T23:40:39.377Z,3.97
2017-09-06T23:43:06.790Z,3.30
2017-09-06T23:45:34.205Z,3.57
2017-09-06T23:48:01.630Z,3.20
2017-09-06T23:50:29.042Z,3.90
2017-09-06T23:52:56.468Z,4.87
2017-09-06T23:55:24.798Z,3.20
2017-09-06T23:57:52.201Z,3.80
